Time;durP1;ratioP1;P1;durP2;ratioP2;P2;SDS_P1;SDS_P2;PMS_P1;PMS_P2;Temp;Humidity;BMP_temperature;BMP_pressure;BME280_temperature;BME280_humidity;BME280_pressure;Samples;Min_cycle;Max_cycle;Signal;HPM_P1;HPM_P2
2024/02/28 00:00:23;;;;;;;21.23;18.33;;;8.30;99.90;;;;;;5033242;28;20478;-73
2024/02/28 00:02:49;;;;;;;21.63;17.03;;;8.30;99.90;;;;;;5033654;28;20301;-72
2024/02/28 00:05:14;;;;;;;21.13;16.50;;;8.30;99.90;;;;;;5033409;28;20197;-72
2024/02/28 00:07:40;;;;;;;21.70;18.40;;;8.30;99.90;;;;;;5032330;28;20179;-72
2024/02/28 00:10:06;;;;;;;23.50;18.03;;;8.40;99.90;;;;;;5033040;28;20174;-72
2024/02/28 00:12:31;;;;;;;25.93;17.80;;;8.40;99.90;;;;;;5033118;28;20213;-72
2024/02/28 00:14:57;;;;;;;22.30;17.80;;;8.40;99.90;;;;;;5033032;28;20628;-72
2024/02/28 00:17:22;;;;;;;21.97;17.87;;;8.40;99.90;;;;;;5032395;28;20228;-72
2024/02/28 00:19:48;;;;;;;23.97;18.97;;;8.40;99.90;;;;;;5032916;28;20194;-72
2024/02/28 00:22:13;;;;;;;24.40;17.87;;;8.40;99.90;;;;;;5032922;28;20237;-72
2024/02/28 00:24:39;;;;;;;22.40;19.60;;;8.40;99.90;;;;;;5032883;28;20185;-72
2024/02/28 00:27:05;;;;;;;23.07;18.73;;;8.40;99.90;;;;;;5032137;28;20178;-72
2024/02/28 00:29:30;;;;;;;21.80;17.20;;;8.40;99.90;;;;;;5032571;28;20503;-72
2024/02/28 00:31:56;;;;;;;20.20;17.47;;;8.40;99.90;;;;;;5032675;28;20205;-72
2024/02/28 00:34:21;;;;;;;21.40;17.83;;;8.40;99.90;;;;;;5032658;28;20179;-73
2024/02/28 00:36:47;;;;;;;21.87;17.30;;;8.40;99.90;;;;;;5031867;28;20202;-72
2024/02/28 00:39:12;;;;;;;22.90;19.00;;;8.40;99.90;;;;;;5032672;28;20197;-72
2024/02/28 00:41:38;;;;;;;22.10;17.70;;;8.40;99.90;;;;;;5032605;28;20178;-72
2024/02/28 00:44:04;;;;;;;22.00;18.00;;;8.30;99.90;;;;;;5032449;28;20178;-72
2024/02/28 00:46:29;;;;;;;22.27;18.10;;;8.20;99.90;;;;;;5031725;28;20178;-72
2024/02/28 00:48:55;;;;;;;21.63;16.93;;;8.10;99.90;;;;;;5032326;28;20190;-72
2024/02/28 00:51:20;;;;;;;22.73;18.47;;;8.00;99.90;;;;;;5032333;28;20201;-72
2024/02/28 00:53:46;;;;;;;19.90;17.80;;;7.80;99.90;;;;;;5032437;28;20589;-72
2024/02/28 00:56:11;;;;;;;25.47;19.40;;;7.80;99.90;;;;;;5032325;28;20221;-72
2024/02/28 00:58:38;;;;;;;24.23;19.27;;;7.70;99.90;;;;;;5031369;28;20210;-72
2024/02/28 01:01:04;;;;;;;21.77;17.60;;;7.70;99.90;;;;;;5032261;28;20177;-72
2024/02/28 01:03:29;;;;;;;25.90;18.80;;;7.70;99.90;;;;;;5032347;28;20413;-72
2024/02/28 01:05:55;;;;;;;25.03;19.50;;;7.70;99.90;;;;;;5032206;28;20549;-72
2024/02/28 01:08:20;;;;;;;24.40;18.30;;;7.80;99.90;;;;;;5031486;28;20198;-72
2024/02/28 01:10:46;;;;;;;22.27;17.23;;;7.80;99.90;;;;;;5032115;28;20210;-72
2024/02/28 01:13:12;;;;;;;23.73;17.23;;;7.80;99.90;;;;;;5032069;28;20174;-72
2024/02/28 01:15:40;;;;;;;21.27;16.30;;;7.80;99.90;;;;;;5032061;28;20178;-72
2024/02/28 01:18:06;;;;;;;24.50;18.77;;;7.80;99.90;;;;;;5031285;28;20194;-72
2024/02/28 01:20:31;;;;;;;21.70;18.50;;;7.80;99.90;;;;;;5032007;28;20425;-72
2024/02/28 01:22:57;;;;;;;22.73;18.03;;;7.90;99.90;;;;;;5032022;28;20181;-72
2024/02/28 01:25:22;;;;;;;25.43;18.90;;;8.00;99.90;;;;;;5032115;28;20178;-72
2024/02/28 01:27:48;;;;;;;26.93;20.17;;;8.00;99.90;;;;;;5031109;28;20194;-72
2024/02/28 01:30:14;;;;;;;23.70;18.87;;;8.10;99.90;;;;;;5031927;28;20245;-72
2024/02/28 01:32:39;;;;;;;25.10;18.10;;;8.10;99.90;;;;;;5031929;28;20166;-72
2024/02/28 01:35:05;;;;;;;23.60;18.87;;;8.00;99.90;;;;;;5032032;28;20265;-72
2024/02/28 01:37:30;;;;;;;23.43;18.40;;;8.00;99.90;;;;;;5031129;28;20253;-72
2024/02/28 01:39:56;;;;;;;24.30;18.77;;;8.10;99.90;;;;;;5031913;28;20503;-72
2024/02/28 01:42:21;;;;;;;25.07;19.97;;;8.10;99.90;;;;;;5031823;28;20253;-72
2024/02/28 01:44:49;;;;;;;25.23;20.00;;;8.00;99.90;;;;;;5030639;28;20176;-72
2024/02/28 01:47:15;;;;;;;25.23;19.27;;;8.00;99.90;;;;;;5031070;28;20162;-72
2024/02/28 01:49:42;;;;;;;26.40;19.93;;;8.00;99.90;;;;;;5031835;28;20437;-72
2024/02/28 01:52:08;;;;;;;22.53;19.73;;;8.00;99.90;;;;;;5031798;28;20452;-72
2024/02/28 01:54:35;;;;;;;25.93;20.77;;;7.90;99.90;;;;;;5031725;28;20503;-72
2024/02/28 01:57:00;;;;;;;23.43;19.20;;;8.00;99.90;;;;;;5031249;28;20413;-72
2024/02/28 01:59:27;;;;;;;24.03;18.80;;;8.00;99.90;;;;;;5035686;28;20552;-72
2024/02/28 02:01:53;;;;;;;25.17;19.17;;;8.00;99.90;;;;;;5035872;28;20178;-72
2024/02/28 02:04:19;;;;;;;23.93;20.50;;;8.10;99.90;;;;;;5035660;28;20413;-72
2024/02/28 02:06:46;;;;;;;25.63;18.10;;;8.10;99.90;;;;;;5034749;28;20639;-72
2024/02/28 02:09:13;;;;;;;22.47;18.00;;;8.00;99.90;;;;;;5034138;28;20198;-73
2024/02/28 02:11:39;;;;;;;23.10;18.77;;;8.00;99.90;;;;;;5035313;28;20498;-72
2024/02/28 02:14:04;;;;;;;25.47;19.47;;;8.00;99.90;;;;;;5035350;28;20953;-72
2024/02/28 02:16:30;;;;;;;24.77;18.70;;;7.90;99.90;;;;;;5034525;28;20417;-72
2024/02/28 02:18:55;;;;;;;26.50;19.97;;;7.80;99.90;;;;;;5035155;28;20198;-72
2024/02/28 02:21:30;;;;;;;24.90;19.80;;;7.80;99.90;;;;;;5035254;28;20166;-72
2024/02/28 02:23:56;;;;;;;27.30;19.57;;;7.80;99.90;;;;;;5035499;28;20170;-72
2024/02/28 02:26:21;;;;;;;26.10;19.10;;;7.70;99.90;;;;;;5034950;28;20436;-72
2024/02/28 02:28:47;;;;;;;28.87;20.73;;;7.70;99.90;;;;;;5034597;28;20194;-72
2024/02/28 02:31:13;;;;;;;26.17;19.97;;;7.70;99.90;;;;;;5034917;28;20206;-72
2024/02/28 02:33:39;;;;;;;23.70;17.53;;;7.80;99.90;;;;;;5034987;28;20173;-72
2024/02/28 02:36:04;;;;;;;28.77;19.50;;;7.80;99.90;;;;;;5034929;28;20508;-72
2024/02/28 02:38:30;;;;;;;29.70;20.10;;;7.80;99.90;;;;;;5034112;28;20197;-72
2024/02/28 02:40:55;;;;;;;27.30;19.67;;;7.80;99.90;;;;;;5034824;28;20171;-72
2024/02/28 02:43:21;;;;;;;25.40;20.17;;;7.80;99.90;;;;;;5034940;28;20178;-72
2024/02/28 02:45:46;;;;;;;29.37;20.67;;;7.80;99.90;;;;;;5034793;28;20721;-72
2024/02/28 02:48:12;;;;;;;28.83;20.90;;;7.80;99.90;;;;;;5034031;28;20190;-72
2024/02/28 02:50:37;;;;;;;28.27;20.23;;;7.80;99.90;;;;;;5034585;28;20263;-72
2024/02/28 02:53:04;;;;;;;24.50;19.60;;;7.80;99.90;;;;;;5034715;28;20167;-72
2024/02/28 02:55:29;;;;;;;23.70;18.70;;;7.80;99.90;;;;;;5034730;28;20532;-72
2024/02/28 02:57:55;;;;;;;27.50;21.63;;;7.70;99.90;;;;;;5033709;28;20451;-72
2024/02/28 03:00:21;;;;;;;27.57;21.23;;;7.80;99.90;;;;;;5034523;28;20979;-72
2024/02/28 03:02:47;;;;;;;24.07;20.23;;;7.80;99.90;;;;;;5034501;28;20181;-72
2024/02/28 03:05:13;;;;;;;26.73;19.80;;;7.90;99.90;;;;;;5034398;28;20800;-72
2024/02/28 03:07:38;;;;;;;25.13;19.43;;;7.90;99.90;;;;;;5033528;28;20175;-72
2024/02/28 03:10:04;;;;;;;24.00;19.90;;;7.80;99.90;;;;;;5032705;28;20718;-72
2024/02/28 03:12:30;;;;;;;22.50;18.67;;;7.80;99.90;;;;;;5034281;28;20680;-72
2024/02/28 03:14:55;;;;;;;26.50;19.83;;;7.70;99.90;;;;;;5034110;28;20424;-72
2024/02/28 03:17:21;;;;;;;28.67;21.63;;;7.70;99.90;;;;;;5033544;28;20167;-72
2024/02/28 03:19:47;;;;;;;22.30;18.30;;;7.70;99.90;;;;;;5034132;28;20190;-72
2024/02/28 03:22:12;;;;;;;26.93;19.40;;;7.80;99.90;;;;;;5034169;28;20705;-72
2024/02/28 03:24:38;;;;;;;23.77;19.90;;;7.80;99.90;;;;;;5034017;28;20200;-72
2024/02/28 03:27:03;;;;;;;22.93;19.40;;;7.80;99.90;;;;;;5033319;28;20182;-72
2024/02/28 03:29:29;;;;;;;23.40;18.87;;;7.80;99.90;;;;;;5033941;28;20240;-72
2024/02/28 03:31:55;;;;;;;26.07;20.40;;;7.70;99.90;;;;;;5033853;28;20209;-72
2024/02/28 03:34:20;;;;;;;27.00;20.73;;;7.70;99.90;;;;;;5033947;28;20193;-72
2024/02/28 03:36:46;;;;;;;27.77;20.83;;;7.60;99.90;;;;;;5033095;28;20413;-72
2024/02/28 03:39:12;;;;;;;24.57;18.97;;;7.70;99.90;;;;;;5033766;28;20264;-72
2024/02/28 03:41:38;;;;;;;28.10;19.87;;;7.70;99.90;;;;;;5033719;28;20174;-72
2024/02/28 03:44:03;;;;;;;25.33;19.10;;;7.70;99.90;;;;;;5033550;28;20751;-72
2024/02/28 03:46:29;;;;;;;26.40;19.70;;;7.70;99.90;;;;;;5032876;28;20185;-72
2024/02/28 03:48:55;;;;;;;25.90;20.67;;;7.80;99.90;;;;;;5033499;28;20449;-72
2024/02/28 03:51:21;;;;;;;24.73;19.67;;;7.80;99.90;;;;;;5052679;28;20193;-72
2024/02/28 03:53:46;;;;;;;26.93;20.57;;;7.70;99.90;;;;;;5053501;28;20637;-72
2024/02/28 03:56:12;;;;;;;25.93;19.20;;;7.70;99.90;;;;;;5053405;28;20257;-72
2024/02/28 03:58:37;;;;;;;27.80;21.90;;;7.60;99.90;;;;;;5052576;28;20205;-72
2024/02/28 04:01:03;;;;;;;27.60;20.07;;;7.50;99.90;;;;;;5053226;28;20182;-72
2024/02/28 04:03:29;;;;;;;28.17;20.23;;;7.50;99.90;;;;;;5053272;28;20165;-72
2024/02/28 04:05:54;;;;;;;26.10;19.87;;;7.50;99.90;;;;;;5053071;28;20178;-72
2024/02/28 04:08:20;;;;;;;27.30;20.10;;;7.60;99.90;;;;;;5052400;28;20240;-73
2024/02/28 04:10:45;;;;;;;27.93;18.70;;;7.60;99.90;;;;;;5053013;28;20201;-72
2024/02/28 04:13:11;;;;;;;30.20;21.17;;;7.60;99.90;;;;;;5052977;28;20177;-73
2024/02/28 04:15:38;;;;;;;23.20;18.37;;;7.50;99.90;;;;;;5053071;28;20166;-72
2024/02/28 04:18:03;;;;;;;25.73;19.27;;;7.50;99.90;;;;;;5052223;28;20201;-72
2024/02/28 04:20:29;;;;;;;21.77;17.50;;;7.40;99.90;;;;;;5052514;28;20412;-71
2024/02/28 04:22:55;;;;;;;25.70;18.10;;;7.40;99.90;;;;;;5052850;28;20231;-72
2024/02/28 04:25:20;;;;;;;27.97;19.13;;;7.40;99.90;;;;;;5052950;28;20639;-72
2024/02/28 04:27:47;;;;;;;25.10;18.07;;;7.40;99.90;;;;;;5052060;28;20196;-73
2024/02/28 04:30:12;;;;;;;27.00;19.17;;;7.40;99.90;;;;;;5052551;28;20169;-73
2024/02/28 04:32:38;;;;;;;28.63;19.10;;;7.40;99.90;;;;;;5052657;28;20417;-72
2024/02/28 04:35:04;;;;;;;29.37;20.90;;;7.40;99.90;;;;;;5052618;28;20200;-72
2024/02/28 04:37:29;;;;;;;26.20;20.47;;;7.30;99.90;;;;;;5051679;28;20626;-73
2024/02/28 04:39:55;;;;;;;25.43;19.20;;;7.30;99.90;;;;;;5052642;28;20239;-73
2024/02/28 04:42:20;;;;;;;27.77;20.63;;;7.30;99.90;;;;;;5052446;28;20174;-72
2024/02/28 04:44:46;;;;;;;25.93;19.40;;;7.30;99.90;;;;;;5052465;28;20276;-72
2024/02/28 04:47:11;;;;;;;32.80;21.53;;;7.30;99.90;;;;;;5051752;28;20170;-72
2024/02/28 04:49:38;;;;;;;28.87;21.30;;;7.30;99.90;;;;;;5052365;28;20221;-70
2024/02/28 04:52:05;;;;;;;26.77;19.67;;;7.30;99.90;;;;;;5052195;28;20276;-70
2024/02/28 04:54:30;;;;;;;26.50;21.40;;;7.20;99.90;;;;;;5052208;28;20425;-71
2024/02/28 04:56:56;;;;;;;30.43;22.30;;;7.20;99.90;;;;;;5050148;28;20431;-71
2024/02/28 04:59:21;;;;;;;26.40;20.83;;;7.20;99.90;;;;;;5052241;28;20199;-71
2024/02/28 05:01:47;;;;;;;27.27;20.20;;;7.20;99.90;;;;;;5052162;28;20180;-71
2024/02/28 05:04:13;;;;;;;28.80;20.10;;;7.20;99.90;;;;;;5052209;28;20177;-71
2024/02/28 05:06:39;;;;;;;28.53;20.17;;;7.20;99.90;;;;;;5051378;28;20416;-71
2024/02/28 05:09:05;;;;;;;28.93;20.77;;;7.20;99.90;;;;;;5051997;28;20909;-71
2024/02/28 05:11:30;;;;;;;26.70;19.17;;;7.20;99.90;;;;;;5051980;28;20280;-71
2024/02/28 05:13:56;;;;;;;24.70;19.30;;;7.20;99.90;;;;;;5052110;28;20200;-71
2024/02/28 05:16:21;;;;;;;27.00;20.13;;;7.20;99.90;;;;;;5051675;28;20174;-71
2024/02/28 05:18:47;;;;;;;27.13;20.40;;;7.10;99.90;;;;;;5051563;28;20247;-71
2024/02/28 05:21:13;;;;;;;25.87;19.10;;;7.10;99.90;;;;;;5051956;28;20177;-71
2024/02/28 05:23:40;;;;;;;26.03;20.30;;;7.10;99.90;;;;;;5051913;28;20162;-71
2024/02/28 05:26:06;;;;;;;27.30;21.03;;;7.10;99.90;;;;;;5051902;28;20415;-71
2024/02/28 05:28:34;;;;;;;26.27;20.97;;;7.10;99.90;;;;;;5051207;28;20531;-71
2024/02/28 05:31:02;;;;;;;29.83;21.67;;;7.10;99.90;;;;;;5051812;28;20455;-71
2024/02/28 05:33:28;;;;;;;27.90;20.23;;;7.10;99.90;;;;;;5054678;28;20424;-71
2024/02/28 05:35:54;;;;;;;25.77;20.10;;;7.10;99.90;;;;;;5055972;28;20940;-71
2024/02/28 05:38:19;;;;;;;26.80;20.17;;;7.10;99.90;;;;;;5055375;28;20196;-71
2024/02/28 05:40:45;;;;;;;23.90;19.20;;;7.10;99.90;;;;;;5055850;28;20180;-71
2024/02/28 05:43:10;;;;;;;27.00;20.43;;;7.10;99.90;;;;;;5055917;28;20192;-71
2024/02/28 05:45:36;;;;;;;26.57;20.60;;;7.00;99.90;;;;;;5055892;28;20536;-71
2024/02/28 05:48:01;;;;;;;30.00;21.07;;;7.00;99.90;;;;;;5055033;28;20189;-71
2024/02/28 05:50:27;;;;;;;22.97;19.53;;;6.90;99.90;;;;;;5055616;28;20221;-71
2024/02/28 05:52:52;;;;;;;24.27;19.77;;;6.90;99.90;;;;;;5055884;28;20170;-71
2024/02/28 05:55:18;;;;;;;23.50;19.20;;;6.90;99.90;;;;;;5055592;28;20248;-71
2024/02/28 05:57:43;;;;;;;24.60;19.20;;;6.90;99.90;;;;;;5054638;28;20189;-71
2024/02/28 06:00:09;;;;;;;23.73;19.40;;;6.90;99.90;;;;;;5055536;28;20566;-73
2024/02/28 06:02:37;;;;;;;30.47;21.40;;;6.90;99.90;;;;;;5055984;28;20172;-70
2024/02/28 06:05:03;;;;;;;27.70;20.20;;;6.80;99.90;;;;;;5055386;28;20427;-71
2024/02/28 06:07:28;;;;;;;26.50;20.03;;;6.80;99.90;;;;;;5054588;28;20416;-71
2024/02/28 06:09:54;;;;;;;26.83;20.60;;;6.70;99.90;;;;;;5055310;28;20435;-71
2024/02/28 06:12:19;;;;;;;21.23;18.40;;;6.80;99.90;;;;;;5055186;28;20258;-71
2024/02/28 06:14:44;;;;;;;27.33;21.33;;;6.80;99.90;;;;;;5055320;28;20639;-71
2024/02/28 06:17:10;;;;;;;26.07;19.80;;;6.80;99.90;;;;;;5054600;28;20169;-71
2024/02/28 06:19:35;;;;;;;25.77;20.47;;;6.80;99.90;;;;;;5055094;28;20193;-71
2024/02/28 06:22:01;;;;;;;24.93;20.13;;;6.90;99.90;;;;;;5055240;28;20188;-71
2024/02/28 06:24:26;;;;;;;28.70;20.40;;;6.90;99.90;;;;;;5054933;28;20177;-71
2024/02/28 06:26:52;;;;;;;27.70;20.47;;;6.90;99.90;;;;;;5054285;28;20181;-71
2024/02/28 06:29:18;;;;;;;28.53;20.40;;;6.90;99.90;;;;;;5054885;28;20269;-71
2024/02/28 06:31:43;;;;;;;24.80;19.10;;;6.90;99.90;;;;;;5054844;28;20670;-71
2024/02/28 06:34:09;;;;;;;25.00;20.30;;;6.90;99.90;;;;;;5054787;28;20177;-71
2024/02/28 06:36:34;;;;;;;26.33;20.97;;;6.90;99.90;;;;;;5054210;28;20174;-71
2024/02/28 06:39:00;;;;;;;24.87;21.07;;;6.90;99.90;;;;;;5054675;28;20186;-71
2024/02/28 06:41:25;;;;;;;26.80;18.93;;;6.90;99.90;;;;;;5054687;28;20252;-71
2024/02/28 06:43:51;;;;;;;29.00;21.77;;;6.90;99.90;;;;;;5054411;28;20173;-71
2024/02/28 06:46:17;;;;;;;32.10;20.30;;;6.90;99.90;;;;;;5054584;28;20708;-71
2024/02/28 06:48:43;;;;;;;24.87;20.10;;;7.00;99.90;;;;;;5054087;28;20530;-71
2024/02/28 06:51:08;;;;;;;27.60;19.50;;;7.00;99.90;;;;;;5054377;28;20459;-71
2024/02/28 06:53:34;;;;;;;25.97;19.50;;;7.00;99.90;;;;;;5054492;28;20174;-71
2024/02/28 06:56:01;;;;;;;26.53;20.10;;;7.20;99.90;;;;;;5054491;28;20170;-71
2024/02/28 06:58:27;;;;;;;25.90;20.50;;;7.20;99.90;;;;;;5053610;28;20206;-71
2024/02/28 07:00:52;;;;;;;25.73;21.53;;;7.30;99.90;;;;;;5054448;28;20423;-71
2024/02/28 07:03:18;;;;;;;27.10;21.40;;;7.20;99.90;;;;;;5054314;28;20181;-71
2024/02/28 07:05:43;;;;;;;29.83;21.00;;;7.20;99.90;;;;;;5054214;28;20166;-71
2024/02/28 07:08:11;;;;;;;29.50;19.83;;;7.30;99.90;;;;;;5053513;28;20189;-71
2024/02/28 07:10:36;;;;;;;24.37;20.10;;;7.30;99.90;;;;;;5054205;28;20201;-71
2024/02/28 07:13:02;;;;;;;27.17;19.83;;;7.30;99.90;;;;;;5054216;28;20825;-71
2024/02/28 07:15:27;;;;;;;28.50;22.13;;;7.30;99.90;;;;;;5054219;28;20170;-71
2024/02/28 07:17:53;;;;;;;31.47;20.40;;;7.20;99.90;;;;;;5053191;28;20689;-71
2024/02/28 07:20:18;;;;;;;27.00;19.40;;;7.20;99.90;;;;;;5054034;28;20166;-71
2024/02/28 07:22:44;;;;;;;24.30;20.30;;;7.10;99.90;;;;;;5053986;28;20256;-71
2024/02/28 07:25:10;;;;;;;28.83;20.90;;;7.10;99.90;;;;;;5053887;28;20241;-72
2024/02/28 07:27:35;;;;;;;27.13;21.23;;;7.10;99.90;;;;;;5053245;28;20556;-70
2024/02/28 07:30:03;;;;;;;24.70;20.90;;;7.10;99.90;;;;;;5053877;28;20597;-70
2024/02/28 07:32:28;;;;;;;25.80;19.77;;;7.30;99.90;;;;;;5053701;28;20192;-70
2024/02/28 07:34:55;;;;;;;28.00;20.47;;;7.40;99.90;;;;;;5053757;28;20416;-71
2024/02/28 07:37:20;;;;;;;30.60;24.70;;;7.40;99.90;;;;;;5051684;28;20201;-70
2024/02/28 07:39:47;;;;;;;28.53;21.87;;;7.50;99.90;;;;;;5053600;28;20439;-73
2024/02/28 07:42:12;;;;;;;27.67;19.90;;;7.50;99.90;;;;;;5053647;28;20170;-71
2024/02/28 07:44:38;;;;;;;27.70;21.17;;;7.60;99.90;;;;;;5053665;28;20434;-71
2024/02/28 07:47:06;;;;;;;24.93;19.03;;;7.60;99.90;;;;;;5046768;28;20529;-73
2024/02/28 07:49:31;;;;;;;23.60;19.40;;;7.70;99.90;;;;;;5053368;28;20526;-72
2024/02/28 07:51:57;;;;;;;23.93;20.03;;;7.60;99.90;;;;;;5053297;28;20550;-72
2024/02/28 07:54:22;;;;;;;26.10;21.07;;;7.70;99.90;;;;;;5053180;28;20166;-72
2024/02/28 07:56:48;;;;;;;24.73;19.17;;;7.70;99.90;;;;;;5052012;28;20194;-72
2024/02/28 07:59:14;;;;;;;25.23;19.60;;;7.70;99.90;;;;;;5053507;28;20193;-66
2024/02/28 08:01:39;;;;;;;26.40;18.43;;;7.80;99.90;;;;;;5054128;28;20415;-65
2024/02/28 08:04:05;;;;;;;25.53;19.20;;;7.80;99.90;;;;;;5054952;28;20170;-65
2024/02/28 08:06:33;;;;;;;24.33;18.50;;;7.80;99.90;;;;;;5054329;28;20178;-65
2024/02/28 08:08:58;;;;;;;24.20;20.40;;;7.80;99.90;;;;;;5052224;28;20761;-73
2024/02/28 08:11:24;;;;;;;26.20;22.23;;;7.90;99.90;;;;;;5042479;28;20522;-73
2024/02/28 08:13:51;;;;;;;25.50;20.00;;;7.80;99.90;;;;;;5032680;28;20289;-73
2024/02/28 08:16:16;;;;;;;28.13;21.27;;;7.80;99.90;;;;;;5032370;28;20424;-73
2024/02/28 08:18:42;;;;;;;21.30;18.03;;;7.80;99.90;;;;;;5032318;28;20436;-73
2024/02/28 08:21:09;;;;;;;24.60;18.70;;;7.90;99.90;;;;;;5032648;28;20192;-73
2024/02/28 08:23:34;;;;;;;22.70;19.60;;;7.90;99.90;;;;;;5032675;28;20304;-73
2024/02/28 08:26:00;;;;;;;24.70;19.10;;;7.80;99.90;;;;;;5043910;28;20543;-73
2024/02/28 08:28:25;;;;;;;22.00;18.30;;;7.80;99.90;;;;;;5051860;28;20193;-73
2024/02/28 08:30:51;;;;;;;22.20;17.87;;;7.80;99.90;;;;;;5052181;28;20201;-73
2024/02/28 08:33:17;;;;;;;22.70;18.63;;;8.00;99.90;;;;;;5052319;28;20162;-72
2024/02/28 08:35:43;;;;;;;24.23;17.23;;;8.00;99.90;;;;;;5052372;28;20174;-73
2024/02/28 08:38:08;;;;;;;24.70;19.77;;;8.00;99.90;;;;;;5051465;28;20335;-73
2024/02/28 08:40:34;;;;;;;23.30;18.63;;;8.10;99.90;;;;;;5052301;28;20937;-73
2024/02/28 08:42:59;;;;;;;24.43;19.17;;;8.10;99.90;;;;;;5052225;28;20231;-73
2024/02/28 08:45:25;;;;;;;27.23;20.87;;;8.20;99.90;;;;;;5051874;28;20178;-73
2024/02/28 08:47:50;;;;;;;27.90;21.80;;;8.00;99.90;;;;;;5051564;28;20247;-73
2024/02/28 08:50:16;;;;;;;26.63;20.50;;;8.00;99.90;;;;;;5051987;28;20178;-73
2024/02/28 08:52:41;;;;;;;24.60;19.93;;;7.80;99.90;;;;;;5052085;28;20178;-73
2024/02/28 08:55:07;;;;;;;26.67;20.40;;;7.80;99.90;;;;;;5051909;28;20701;-72
2024/02/28 08:57:34;;;;;;;26.37;21.07;;;7.80;99.90;;;;;;5051056;28;20580;-73
2024/02/28 08:59:59;;;;;;;26.53;21.13;;;7.70;99.90;;;;;;5052001;28;20252;-72
2024/02/28 09:02:25;;;;;;;29.53;22.13;;;7.70;99.90;;;;;;5051661;28;20508;-73
2024/02/28 09:04:52;;;;;;;28.40;20.40;;;7.60;99.90;;;;;;5051920;28;20182;-72
2024/02/28 09:07:21;;;;;;;31.07;23.53;;;7.70;99.90;;;;;;5050912;28;20174;-72
2024/02/28 09:09:47;;;;;;;27.77;19.63;;;7.80;99.90;;;;;;5051439;28;20475;-72
2024/02/28 09:12:13;;;;;;;26.50;19.87;;;7.90;99.90;;;;;;5051634;28;20463;-73
2024/02/28 09:14:39;;;;;;;28.23;20.70;;;7.90;99.90;;;;;;5051420;28;20416;-72
2024/02/28 09:17:05;;;;;;;30.13;22.97;;;7.90;99.90;;;;;;5050541;28;20182;-72
2024/02/28 09:19:31;;;;;;;32.70;22.10;;;7.90;99.90;;;;;;5051732;28;20323;-72
2024/02/28 09:21:57;;;;;;;31.70;21.90;;;8.00;99.90;;;;;;5049884;28;20431;-73
2024/02/28 09:24:23;;;;;;;29.60;21.13;;;8.10;99.90;;;;;;5051889;28;20431;-73
2024/02/28 09:26:49;;;;;;;28.20;23.00;;;8.20;99.90;;;;;;5050853;28;20423;-73
2024/02/28 09:29:14;;;;;;;28.40;22.07;;;8.20;99.90;;;;;;5051715;28;20800;-73
2024/02/28 09:31:40;;;;;;;28.83;23.00;;;8.30;99.90;;;;;;5051639;28;20205;-73
2024/02/28 09:34:07;;;;;;;27.97;21.40;;;8.20;99.90;;;;;;5051668;28;20174;-73
2024/02/28 09:36:39;;;;;;;27.47;20.90;;;8.20;99.90;;;;;;5046858;28;20257;-72
2024/02/28 09:39:05;;;;;;;28.70;21.70;;;8.20;99.90;;;;;;5030769;28;20526;-72
2024/02/28 09:41:30;;;;;;;31.73;25.77;;;8.30;99.90;;;;;;5031248;28;20444;-72
2024/02/28 09:43:57;;;;;;;28.30;20.90;;;8.40;99.90;;;;;;5031566;28;20255;-72
2024/02/28 09:46:23;;;;;;;27.17;20.30;;;8.50;99.90;;;;;;5030836;28;20186;-70
2024/02/28 09:48:50;;;;;;;26.63;20.80;;;8.60;99.90;;;;;;5030936;28;20440;-72
2024/02/28 09:51:18;;;;;;;32.20;22.30;;;8.80;99.90;;;;;;5031194;28;20535;-72
2024/02/28 09:53:43;;;;;;;26.33;20.77;;;8.70;99.90;;;;;;5031143;28;20445;-72
2024/02/28 09:56:11;;;;;;;26.17;20.10;;;8.60;99.90;;;;;;5031241;28;20832;-72
2024/02/28 09:58:38;;;;;;;30.67;20.80;;;8.50;99.90;;;;;;5030167;28;20310;-72
2024/02/28 10:01:09;;;;;;;25.17;20.20;;;8.60;99.90;;;;;;5031102;28;20826;-71
2024/02/28 10:03:36;;;;;;;24.57;19.43;;;8.50;99.90;;;;;;5031398;28;20504;-72
2024/02/28 10:06:02;;;;;;;20.80;17.80;;;8.40;99.90;;;;;;5030889;28;20429;-71
2024/02/28 10:08:29;;;;;;;23.67;17.90;;;8.40;99.90;;;;;;5029208;28;20821;-72
2024/02/28 10:10:55;;;;;;;28.07;19.20;;;8.40;99.90;;;;;;5047879;28;20691;-72
2024/02/28 10:13:22;;;;;;;25.57;21.47;;;8.40;99.90;;;;;;5050872;28;20499;-72
2024/02/28 10:15:50;;;;;;;21.93;17.70;;;8.50;99.90;;;;;;5051188;28;20451;-71
2024/02/28 10:18:16;;;;;;;22.30;17.93;;;8.50;99.90;;;;;;5050879;28;20467;-72
2024/02/28 10:20:42;;;;;;;20.17;16.13;;;8.40;99.90;;;;;;5054415;28;20446;-72
2024/02/28 10:23:09;;;;;;;23.27;18.17;;;8.50;99.90;;;;;;5054642;28;20178;-72
2024/02/28 10:25:55;;;;;;;22.10;17.60;;;8.50;99.90;;;;;;5054763;28;20178;-71
2024/02/28 10:28:21;;;;;;;22.93;16.57;;;8.50;99.90;;;;;;5053598;28;20444;-71
2024/02/28 10:30:46;;;;;;;22.33;17.73;;;8.70;99.90;;;;;;5054408;28;20462;-71
2024/02/28 10:33:16;;;;;;;23.83;19.57;;;8.70;99.90;;;;;;5054588;28;20511;-71
2024/02/28 10:35:43;;;;;;;21.57;17.63;;;8.70;99.90;;;;;;5054155;28;20169;-71
2024/02/28 10:38:13;;;;;;;24.00;21.03;;;8.80;99.90;;;;;;5053743;28;20428;-72
2024/02/28 10:40:42;;;;;;;23.37;17.67;;;8.80;99.90;;;;;;5048487;28;20478;-73
2024/02/28 10:43:09;;;;;;;23.80;16.80;;;8.60;99.90;;;;;;5042050;28;20436;-73
2024/02/28 10:45:36;;;;;;;21.30;16.57;;;8.60;99.90;;;;;;5042550;28;20438;-72
2024/02/28 10:48:03;;;;;;;26.33;19.43;;;8.60;99.90;;;;;;5044199;28;20486;-73
2024/02/28 10:50:29;;;;;;;25.17;18.33;;;8.50;99.90;;;;;;5041822;28;20902;-71
2024/02/28 10:53:00;;;;;;;23.07;17.83;;;8.50;99.90;;;;;;5036950;28;20503;-70
2024/02/28 10:55:30;;;;;;;21.90;17.63;;;8.60;99.90;;;;;;5039104;28;20174;-67
2024/02/28 10:58:03;;;;;;;25.00;18.97;;;8.50;99.90;;;;;;5039473;28;20457;-68
2024/02/28 11:00:30;;;;;;;23.13;18.63;;;8.60;99.90;;;;;;5038380;28;20491;-71
2024/02/28 11:02:59;;;;;;;22.07;18.73;;;8.70;99.90;;;;;;5042391;28;20452;-70
2024/02/28 11:05:36;;;;;;;23.50;17.87;;;8.80;99.90;;;;;;5045300;28;20441;-70
2024/02/28 11:08:02;;;;;;;26.00;20.00;;;8.80;99.90;;;;;;5041471;28;20440;-71
2024/02/28 11:10:33;;;;;;;23.80;18.57;;;8.90;99.90;;;;;;5044431;28;20424;-73
2024/02/28 11:12:59;;;;;;;23.43;17.43;;;9.00;99.90;;;;;;5042921;28;20221;-71
2024/02/28 11:15:27;;;;;;;20.23;17.40;;;9.10;99.90;;;;;;5043062;28;20945;-70
2024/02/28 11:17:52;;;;;;;20.83;18.03;;;9.10;99.90;;;;;;5041051;28;20189;-71
2024/02/28 11:20:18;;;;;;;21.53;16.70;;;9.20;99.90;;;;;;5032829;28;20429;-70
2024/02/28 11:22:44;;;;;;;24.03;17.63;;;9.20;99.90;;;;;;5050868;28;20685;-70
2024/02/28 11:25:09;;;;;;;20.13;15.67;;;9.20;99.90;;;;;;5053570;28;20439;-71
2024/02/28 11:27:45;;;;;;;20.20;16.17;;;9.10;99.90;;;;;;5032479;28;20182;-70
2024/02/28 11:30:12;;;;;;;22.60;18.93;;;9.00;99.90;;;;;;5030436;28;20170;-71
2024/02/28 11:32:38;;;;;;;21.60;17.40;;;8.80;99.90;;;;;;5033683;28;20467;-70
2024/02/28 11:35:04;;;;;;;23.50;18.80;;;8.90;99.90;;;;;;5033744;28;20421;-71
2024/02/28 11:37:30;;;;;;;23.13;18.17;;;8.90;99.90;;;;;;5032949;28;20664;-70
2024/02/28 11:39:55;;;;;;;23.90;18.87;;;8.90;99.90;;;;;;5033672;28;20632;-70
2024/02/28 11:42:20;;;;;;;25.30;19.10;;;9.00;99.90;;;;;;5033538;28;20261;-71
2024/02/28 11:44:57;;;;;;;23.43;17.93;;;9.20;99.90;;;;;;5033480;28;20177;-70
2024/02/28 11:47:23;;;;;;;24.43;19.00;;;9.10;99.90;;;;;;5032809;28;20675;-71
2024/02/28 11:49:49;;;;;;;20.73;16.77;;;9.10;99.90;;;;;;5033400;28;20524;-72
2024/02/28 11:52:14;;;;;;;21.83;17.70;;;9.10;99.90;;;;;;5033371;28;20236;-71
2024/02/28 11:54:41;;;;;;;19.60;16.37;;;9.10;99.90;;;;;;5033305;28;20440;-72
2024/02/28 11:57:10;;;;;;;21.10;16.63;;;9.10;99.90;;;;;;5032409;28;20524;-72
2024/02/28 11:59:36;;;;;;;24.57;16.97;;;9.20;99.90;;;;;;5031928;28;20201;-72
2024/02/28 12:02:15;;;;;;;21.83;16.60;;;9.30;99.90;;;;;;5033554;28;20475;-72
2024/02/28 12:04:42;;;;;;;22.23;18.50;;;9.20;99.90;;;;;;5033139;28;20419;-73
2024/02/28 12:07:08;;;;;;;25.93;17.97;;;9.30;99.90;;;;;;5032438;28;20440;-72
2024/02/28 12:09:34;;;;;;;19.80;17.70;;;9.20;99.90;;;;;;5036936;28;20443;-71
2024/02/28 12:12:04;;;;;;;21.43;17.57;;;9.10;99.90;;;;;;5053032;28;20976;-71
2024/02/28 12:14:36;;;;;;;18.67;15.70;;;9.10;99.90;;;;;;5053037;28;20791;-71
2024/02/28 12:17:02;;;;;;;21.37;17.97;;;9.10;99.90;;;;;;5052137;28;20459;-72
2024/02/28 12:19:28;;;;;;;21.80;16.17;;;9.10;99.90;;;;;;5052790;28;20432;-71
2024/02/28 12:21:55;;;;;;;31.50;18.33;;;9.10;99.90;;;;;;5052720;28;20415;-71
2024/02/28 12:24:21;;;;;;;23.77;18.67;;;9.10;99.90;;;;;;5052688;28;20424;-72
2024/02/28 12:26:46;;;;;;;18.47;16.10;;;9.10;99.90;;;;;;5051922;28;20837;-73
2024/02/28 12:29:12;;;;;;;20.30;16.40;;;9.10;99.90;;;;;;5052430;28;20210;-71